Time;durP1;ratioP1;P1;durP2;ratioP2;P2;SDS_P1;SDS_P2;PMS_P1;PMS_P2;Temp;Humidity;BMP_temperature;BMP_pressure;BME280_temperature;BME280_humidity;BME280_pressure;Samples;Min_cycle;Max_cycle;Signal;HPM_P1;HPM_P2
2022/09/22 00:01:36;;;;;;;0.80;0.60;;;;;;;16.81;47.98;101466.81;4850703;29;20056;-70
2022/09/22 00:04:07;;;;;;;0.70;0.68;;;;;;;16.80;48.12;101473.47;4859921;29;20080;-70
2022/09/22 00:06:46;;;;;;;1.45;0.80;;;;;;;16.79;48.41;101471.84;4859954;29;20053;-70
2022/09/22 00:09:17;;;;;;;0.73;0.73;;;;;;;16.83;48.68;101470.13;4858253;29;20108;-70
2022/09/22 00:11:48;;;;;;;1.13;0.50;;;;;;;16.90;49.08;101478.03;4858788;29;20060;-70
2022/09/22 00:14:22;;;;;;;1.02;0.80;;;;;;;16.99;47.92;101475.41;4859768;29;20049;-70
2022/09/22 00:16:52;;;;;;;2.55;0.90;;;;;;;17.00;48.81;101477.03;4859901;29;20496;-70
2022/09/22 00:19:23;;;;;;;1.00;0.88;;;;;;;17.06;48.08;101484.97;4859427;29;20057;-71
2022/09/22 00:21:52;;;;;;;3.70;0.73;;;;;;;16.92;48.62;101476.59;4859286;29;20054;-71
2022/09/22 00:24:21;;;;;;;0.60;0.60;;;;;;;16.95;49.40;101468.84;4853309;29;20042;-71
2022/09/22 00:26:52;;;;;;;0.75;0.75;;;;;;;17.01;49.25;101473.16;4859706;29;20054;-71
2022/09/22 00:29:21;;;;;;;1.65;0.65;;;;;;;16.93;48.47;101463.63;4858331;29;20041;-71
2022/09/22 00:31:50;;;;;;;0.82;0.60;;;;;;;16.96;49.10;101473.25;4859730;29;20049;-71
2022/09/22 00:34:20;;;;;;;1.38;0.88;;;;;;;16.89;48.61;101468.94;4859559;29;20054;-71
2022/09/22 00:36:49;;;;;;;1.05;0.70;;;;;;;16.91;48.94;101477.72;4859608;29;20501;-71
2022/09/22 00:39:18;;;;;;;0.90;0.63;;;;;;;16.95;49.00;101474.38;4859656;29;20400;-71
2022/09/22 00:41:48;;;;;;;0.73;0.70;;;;;;;16.98;48.34;101471.81;4858370;29;20045;-71
2022/09/22 00:44:25;;;;;;;1.27;0.70;;;;;;;17.00;48.34;101460.44;4859604;29;20049;-71
2022/09/22 00:47:05;;;;;;;1.70;0.73;;;;;;;17.01;48.21;101459.34;4859440;29;20053;-71
2022/09/22 00:49:53;;;;;;;0.80;0.60;;;;;;;16.90;48.48;101456.75;4859383;29;20061;-71
2022/09/22 00:52:43;;;;;;;1.38;0.55;;;;;;;17.08;48.50;101462.56;4855457;29;20140;-71
2022/09/22 00:55:24;;;;;;;0.73;0.63;;;;;;;17.11;48.55;101456.41;4847113;29;20061;-71
2022/09/22 00:57:53;;;;;;;0.90;0.70;;;;;;;17.08;49.63;101453.44;4855765;29;20052;-71
2022/09/22 01:00:21;;;;;;;0.50;0.50;;;;;;;17.01;49.77;101451.84;4841806;29;20042;-71
2022/09/22 01:02:54;;;;;;;1.02;0.80;;;;;;;17.08;49.00;101459.81;4857565;29;20033;-71
2022/09/22 01:05:23;;;;;;;0.47;0.47;;;;;;;16.90;49.77;101453.97;4859402;29;20081;-71
2022/09/22 01:07:51;;;;;;;0.50;0.50;;;;;;;16.90;49.65;101447.63;4847891;29;20053;-71
2022/09/22 01:10:20;;;;;;;1.15;0.68;;;;;;;16.95;49.79;101452.25;4859216;29;20054;-71
2022/09/22 01:13:13;;;;;;;2.80;0.80;;;;;;;17.03;48.91;101451.59;4859277;29;20531;-71
2022/09/22 01:16:07;;;;;;;1.27;0.45;;;;;;;16.87;50.22;101443.50;4858121;29;20053;-71
2022/09/22 01:18:47;;;;;;;2.63;0.50;;;;;;;16.87;50.34;101449.03;4859312;29;20049;-71
2022/09/22 01:21:39;;;;;;;0.73;0.50;;;;;;;16.85;50.83;101433.88;4859131;29;20069;-71
2022/09/22 01:24:27;;;;;;;0.73;0.73;;;;;;;16.86;50.94;101436.34;4857455;29;20061;-71
2022/09/22 01:27:26;;;;;;;1.45;0.80;;;;;;;16.81;51.07;101432.84;4848631;29;20056;-71
2022/09/22 01:30:18;;;;;;;0.82;0.60;;;;;;;16.84;52.47;101440.53;4857775;29;20064;-71
2022/09/22 01:33:08;;;;;;;2.33;0.85;;;;;;;16.95;52.15;101439.25;4860004;29;20057;-71
2022/09/22 01:35:51;;;;;;;1.25;0.50;;;;;;;16.89;51.81;101424.69;4862597;29;20060;-71
2022/09/22 01:38:32;;;;;;;0.60;0.60;;;;;;;16.81;51.61;101424.56;4862371;29;20046;-71
2022/09/22 01:41:11;;;;;;;0.88;0.68;;;;;;;16.91;50.37;101414.16;4861380;29;20045;-71
2022/09/22 01:44:02;;;;;;;1.20;0.73;;;;;;;16.84;51.17;101427.53;4862491;29;20042;-71
2022/09/22 01:46:39;;;;;;;0.60;0.60;;;;;;;16.78;51.06;101426.00;4862241;29;20049;-71
2022/09/22 01:49:13;;;;;;;0.95;0.50;;;;;;;16.84;51.06;101415.66;4862349;29;20050;-71
2022/09/22 01:51:50;;;;;;;;;;;;;;;16.79;52.11;101417.41;4862490;29;20062;-71
2022/09/22 01:54:25;;;;;;;0.75;0.70;;;;;;;16.77;51.74;101414.09;4861596;29;20303;-71
2022/09/22 01:57:02;;;;;;;1.70;0.70;;;;;;;16.73;51.98;101415.84;4860779;29;20053;-71
2022/09/22 01:59:36;;;;;;;1.20;0.50;;;;;;;16.75;51.70;101415.53;4855777;29;20074;-71
2022/09/22 02:02:15;;;;;;;0.75;0.73;;;;;;;16.80;51.50;101409.91;4857326;29;20060;-71
2022/09/22 02:04:49;;;;;;;1.00;0.52;;;;;;;16.70;51.84;101410.06;4862076;29;20066;-71
2022/09/22 02:07:25;;;;;;;0.93;0.70;;;;;;;16.61;51.94;101408.00;4852043;29;20073;-71
2022/09/22 02:09:54;;;;;;;2.00;0.60;;;;;;;16.69;52.08;101408.44;4861088;29;20060;-71
2022/09/22 02:12:22;;;;;;;3.60;0.80;;;;;;;16.61;52.22;101407.16;4861521;29;20058;-71
2022/09/22 02:14:50;;;;;;;2.65;0.60;;;;;;;16.58;52.41;101407.78;4861775;29;20053;-71
2022/09/22 02:17:18;;;;;;;2.58;0.65;;;;;;;16.50;51.88;101406.53;4861734;29;20061;-71
2022/09/22 02:19:46;;;;;;;1.73;0.85;;;;;;;16.58;51.88;101408.63;4860294;29;20042;-71
2022/09/22 02:22:14;;;;;;;1.42;0.73;;;;;;;16.51;52.76;101406.22;4861663;29;20045;-71
2022/09/22 02:24:44;;;;;;;0.40;0.40;;;;;;;16.51;52.41;101405.41;4852664;29;20049;-71
2022/09/22 02:27:35;;;;;;;2.65;0.80;;;;;;;16.48;52.68;101403.25;4861444;29;20441;-71
2022/09/22 02:30:08;;;;;;;2.45;1.00;;;;;;;16.47;52.69;101407.13;4855624;29;20042;-71
2022/09/22 02:32:39;;;;;;;0.70;0.70;;;;;;;16.44;52.36;101403.03;4861557;29;20045;-71
2022/09/22 02:35:08;;;;;;;1.52;0.47;;;;;;;16.35;53.73;101393.78;4860178;29;20046;-71
2022/09/22 02:37:49;;;;;;;1.05;0.82;;;;;;;16.30;53.04;101396.59;4861241;29;20049;-71
2022/09/22 02:40:19;;;;;;;1.15;0.98;;;;;;;16.49;52.62;101396.59;4848951;29;20060;-71
2022/09/22 02:42:56;;;;;;;3.97;0.77;;;;;;;16.44;53.61;101385.63;4860672;29;20049;-71
2022/09/22 02:45:33;;;;;;;3.50;0.95;;;;;;;16.45;52.87;101392.78;4861135;29;20060;-72
2022/09/22 02:48:14;;;;;;;1.63;0.80;;;;;;;16.42;53.43;101382.34;4859843;29;20041;-70
2022/09/22 02:50:42;;;;;;;2.42;0.85;;;;;;;16.40;52.98;101388.16;4850382;29;20478;-71
2022/09/22 02:53:13;;;;;;;2.22;0.90;;;;;;;16.44;53.28;101391.16;4857400;29;20076;-70
2022/09/22 02:55:42;;;;;;;1.17;0.75;;;;;;;16.40;54.39;101390.94;4853633;29;20510;-71
2022/09/22 02:58:13;;;;;;;1.98;0.85;;;;;;;16.41;53.85;101394.53;4855331;29;20045;-70
2022/09/22 03:00:42;;;;;;;1.55;0.80;;;;;;;16.42;54.36;101394.19;4844847;29;20057;-70
2022/09/22 03:03:10;;;;;;;1.88;0.60;;;;;;;16.38;52.71;101388.47;4860909;29;20076;-70
2022/09/22 03:05:38;;;;;;;1.35;0.70;;;;;;;16.38;52.92;101387.66;4860670;29;20053;-70
2022/09/22 03:08:06;;;;;;;0.85;0.70;;;;;;;16.48;52.18;101394.97;4860847;29;20397;-71
2022/09/22 03:10:34;;;;;;;1.48;0.73;;;;;;;16.47;52.81;101388.59;4857557;29;20104;-70
2022/09/22 03:13:02;;;;;;;1.38;0.70;;;;;;;16.54;52.39;101393.75;4848300;29;20383;-71
2022/09/22 03:15:46;;;;;;;2.90;0.98;;;;;;;16.49;52.99;101391.06;4860598;29;20057;-70
2022/09/22 03:18:14;;;;;;;1.17;0.90;;;;;;;16.61;52.91;101388.66;4860726;29;20076;-70
2022/09/22 03:20:42;;;;;;;0.90;0.75;;;;;;;16.62;52.62;101387.53;4860640;29;20052;-71
2022/09/22 03:23:10;;;;;;;1.45;1.15;;;;;;;16.57;52.96;101379.31;4860526;29;20048;-70
2022/09/22 03:25:38;;;;;;;0.52;0.52;;;;;;;16.52;53.61;101382.16;4859410;29;20385;-70
2022/09/22 03:28:06;;;;;;;1.50;0.82;;;;;;;16.47;53.50;101382.28;4860295;29;20049;-71
2022/09/22 03:30:36;;;;;;;4.00;1.08;;;;;;;16.46;54.71;101383.38;4855592;29;20464;-70
2022/09/22 03:33:04;;;;;;;0.93;0.82;;;;;;;16.47;53.60;101383.06;4857759;29;20037;-71
2022/09/22 03:35:31;;;;;;;1.27;0.75;;;;;;;16.50;54.77;101384.41;4860509;29;20045;-71
2022/09/22 03:37:59;;;;;;;1.13;0.82;;;;;;;16.49;54.15;101374.50;4859977;29;20049;-70
2022/09/22 03:40:27;;;;;;;1.95;1.02;;;;;;;16.43;54.57;101381.22;4858790;29;20076;-70
2022/09/22 03:42:55;;;;;;;1.33;0.60;;;;;;;16.36;54.18;101373.31;4857266;29;20041;-70
2022/09/22 03:45:23;;;;;;;0.68;0.68;;;;;;;16.57;53.64;101368.28;4859996;29;20401;-70
2022/09/22 03:47:53;;;;;;;2.22;1.00;;;;;;;16.53;54.61;101373.59;4859707;29;20377;-70
2022/09/22 03:50:21;;;;;;;1.13;0.63;;;;;;;16.34;54.89;101367.28;4859635;29;20049;-70
2022/09/22 03:52:49;;;;;;;1.70;0.75;;;;;;;16.42;55.12;101363.81;4859791;29;20061;-71
2022/09/22 03:55:17;;;;;;;2.95;0.80;;;;;;;16.47;55.61;101362.94;4859432;29;20053;-70
2022/09/22 03:57:44;;;;;;;1.48;0.80;;;;;;;16.37;55.05;101361.97;4853814;29;20509;-70
2022/09/22 04:00:13;;;;;;;0.70;0.70;;;;;;;16.37;55.87;101363.91;4851312;29;20508;-71
2022/09/22 04:02:41;;;;;;;1.63;0.95;;;;;;;16.30;55.70;101358.78;4859851;29;20056;-70
2022/09/22 04:05:10;;;;;;;2.78;1.00;;;;;;;16.34;56.70;101362.59;4859052;29;20054;-71
2022/09/22 04:07:37;;;;;;;4.18;1.20;;;;;;;16.49;55.63;101360.69;4859624;29;20053;-71
2022/09/22 04:10:07;;;;;;;1.35;0.85;;;;;;;16.58;55.17;101363.59;4859840;29;20049;-70
2022/09/22 04:12:36;;;;;;;1.92;0.80;;;;;;;16.54;55.95;101352.31;4857524;29;20053;-70
2022/09/22 04:15:05;;;;;;;1.15;0.75;;;;;;;16.47;56.14;101352.69;4848886;29;20054;-70
2022/09/22 04:17:33;;;;;;;1.02;0.70;;;;;;;16.57;55.88;101362.75;4855438;29;20053;-71
2022/09/22 04:20:01;;;;;;;2.20;0.70;;;;;;;16.53;55.55;101359.78;4858571;29;20041;-70
2022/09/22 04:22:28;;;;;;;1.65;0.73;;;;;;;16.46;56.07;101362.09;4859648;29;20054;-71
2022/09/22 04:24:56;;;;;;;0.60;0.60;;;;;;;16.48;57.42;101361.81;4857419;29;20236;-73
2022/09/22 04:27:24;;;;;;;0.73;0.73;;;;;;;16.49;56.00;101364.28;4855505;29;20064;-71
2022/09/22 04:29:52;;;;;;;2.25;0.95;;;;;;;16.48;55.93;101365.38;4859258;29;20405;-71
2022/09/22 04:32:20;;;;;;;1.20;1.00;;;;;;;16.45;56.48;101359.63;4858302;29;20766;-71
2022/09/22 04:34:49;;;;;;;2.13;0.75;;;;;;;16.27;56.43;101353.03;4852209;29;20481;-71
2022/09/22 04:37:16;;;;;;;2.25;0.93;;;;;;;16.30;57.12;101363.47;4859468;29;20049;-71
2022/09/22 04:39:44;;;;;;;1.05;0.88;;;;;;;16.30;56.68;101357.94;4854771;29;20045;-71
2022/09/22 04:42:12;;;;;;;0.60;0.60;;;;;;;16.70;56.15;101365.84;4854916;29;20046;-85
2022/09/22 04:44:40;;;;;;;0.75;0.75;;;;;;;16.64;55.44;101363.22;4857161;29;20561;-69
2022/09/22 04:47:08;;;;;;;1.38;0.50;;;;;;;16.54;55.75;101363.38;4857072;29;20049;-70
2022/09/22 04:49:36;;;;;;;2.20;0.75;;;;;;;16.43;56.22;101361.88;4853465;29;20053;-69
2022/09/22 04:52:04;;;;;;;2.50;0.82;;;;;;;16.55;55.44;101369.69;4845176;29;20505;-70
2022/09/22 04:54:33;;;;;;;1.75;1.08;;;;;;;16.58;55.49;101366.34;4856071;29;20038;-58
2022/09/22 04:57:01;;;;;;;2.65;1.05;;;;;;;16.57;56.67;101367.47;4859137;29;20060;-59
2022/09/22 04:59:29;;;;;;;1.25;1.15;;;;;;;16.48;56.36;101367.34;4852373;29;20061;-58
2022/09/22 05:01:57;;;;;;;3.08;0.82;;;;;;;16.51;56.38;101370.31;4852111;29;20064;-59
2022/09/22 05:04:25;;;;;;;0.60;0.55;;;;;;;16.35;56.51;101363.38;4856764;29;20050;-59
2022/09/22 05:06:53;;;;;;;2.42;0.60;;;;;;;16.45;56.56;101365.16;4852077;29;20056;-58
2022/09/22 05:09:21;;;;;;;1.13;0.63;;;;;;;16.64;55.08;101379.78;4861933;29;20058;-58
2022/09/22 05:11:49;;;;;;;4.47;0.95;;;;;;;16.64;55.39;101370.66;4862109;29;20060;-58
2022/09/22 05:14:17;;;;;;;3.50;1.08;;;;;;;16.75;55.99;101376.81;4855420;29;20041;-58
2022/09/22 05:16:52;;;;;;;3.45;0.73;;;;;;;16.66;55.61;101369.25;4855961;29;20049;-58
2022/09/22 05:19:20;;;;;;;1.38;1.10;;;;;;;16.70;55.24;101371.38;4857448;29;20041;-58
2022/09/22 05:21:48;;;;;;;3.83;1.27;;;;;;;16.70;55.94;101374.16;4852493;29;20050;-58
2022/09/22 05:24:16;;;;;;;2.50;0.95;;;;;;;16.75;55.56;101379.59;4850720;29;20061;-58
2022/09/22 05:26:43;;;;;;;1.98;0.88;;;;;;;16.57;54.48;101376.56;4859561;29;20049;-69
2022/09/22 05:29:12;;;;;;;4.47;0.88;;;;;;;16.69;53.75;101376.09;4857495;29;20057;-69
2022/09/22 05:31:39;;;;;;;1.55;0.80;;;;;;;16.47;53.80;101380.31;4830585;29;20046;-70
2022/09/22 05:34:07;;;;;;;1.60;1.02;;;;;;;16.72;52.84;101381.00;4861982;29;20056;-70
2022/09/22 05:36:35;;;;;;;1.40;1.10;;;;;;;16.84;53.25;101375.03;4860792;29;20058;-70
2022/09/22 05:39:04;;;;;;;3.17;1.27;;;;;;;16.84;52.24;101380.56;4862502;29;20049;-71
2022/09/22 05:41:32;;;;;;;3.75;1.08;;;;;;;17.03;51.01;101379.69;4862327;29;20033;-71
2022/09/22 05:44:00;;;;;;;1.42;1.02;;;;;;;17.07;52.17;101380.75;4862078;29;20504;-71
2022/09/22 05:46:28;;;;;;;1.38;1.20;;;;;;;17.08;51.49;101376.84;4858085;29;20065;-85
2022/09/22 05:48:56;;;;;;;1.10;1.00;;;;;;;17.13;50.76;101373.16;4857012;29;20049;-71
2022/09/22 05:51:24;;;;;;;1.00;1.00;;;;;;;17.28;51.88;101372.03;4858380;29;20528;-71
2022/09/22 05:53:52;;;;;;;5.28;1.35;;;;;;;17.38;51.37;101379.31;4862215;29;20052;-70
2022/09/22 05:56:20;;;;;;;3.58;1.15;;;;;;;17.12;51.35;101372.34;4860998;29;20520;-71
2022/09/22 05:58:48;;;;;;;2.33;0.95;;;;;;;17.08;51.54;101370.47;4861149;29;20544;-71
2022/09/22 06:01:16;;;;;;;1.40;1.00;;;;;;;17.16;51.67;101372.56;4850076;29;20061;-70
2022/09/22 06:03:44;;;;;;;1.02;0.75;;;;;;;17.22;51.04;101364.97;4862061;29;20413;-71
2022/09/22 06:06:13;;;;;;;1.58;1.10;;;;;;;17.44;50.53;101367.00;4861874;29;20045;-71
2022/09/22 06:08:41;;;;;;;0.98;0.95;;;;;;;17.55;50.82;101367.66;4861752;29;20057;-71
2022/09/22 06:11:15;;;;;;;1.23;0.90;;;;;;;17.78;48.74;101374.06;4861726;29;20042;-72
2022/09/22 06:13:43;;;;;;;0.93;0.70;;;;;;;17.83;50.83;101378.66;4861836;29;20052;-72
2022/09/22 06:16:11;;;;;;;1.27;0.80;;;;;;;17.95;47.62;101369.84;4861671;29;20504;-72
2022/09/22 06:18:38;;;;;;;3.55;0.60;;;;;;;17.92;47.77;101382.34;4861651;29;20049;-73
2022/09/22 06:21:06;;;;;;;4.38;1.33;;;;;;;18.06;47.17;101381.53;4860063;29;20045;-72
2022/09/22 06:23:35;;;;;;;1.55;1.00;;;;;;;18.02;47.34;101380.50;4857112;29;20042;-72
2022/09/22 06:26:09;;;;;;;1.88;0.82;;;;;;;18.10;47.69;101388.09;4861714;29;20057;-73
2022/09/22 06:28:37;;;;;;;0.93;0.80;;;;;;;18.17;46.47;101387.69;4861272;29;20054;-72
2022/09/22 06:31:05;;;;;;;2.53;0.60;;;;;;;18.16;45.66;101386.00;4861437;29;20041;-72
2022/09/22 06:33:34;;;;;;;2.75;1.30;;;;;;;18.27;46.42;101387.41;4861450;29;20049;-72
2022/09/22 06:36:06;;;;;;;0.98;0.88;;;;;;;18.29;46.03;101389.88;4859893;29;20394;-72
2022/09/22 06:38:34;;;;;;;2.60;0.90;;;;;;;18.08;45.32;101382.06;4861470;29;20045;-72
2022/09/22 06:41:03;;;;;;;1.58;0.98;;;;;;;18.15;46.40;101387.97;4861270;29;20401;-72
2022/09/22 06:43:36;;;;;;;1.05;0.80;;;;;;;18.27;45.23;101382.72;4861335;29;20064;-72
2022/09/22 06:46:04;;;;;;;3.42;0.80;;;;;;;18.32;44.01;101383.72;4861207;29;20052;-72
2022/09/22 06:48:33;;;;;;;0.90;0.73;;;;;;;18.45;45.07;101382.84;4861106;29;20045;-72
2022/09/22 06:51:01;;;;;;;1.17;0.73;;;;;;;18.22;44.70;101380.06;4860253;29;20052;-72
2022/09/22 06:53:29;;;;;;;0.90;0.85;;;;;;;18.43;45.11;101390.63;4860834;29;20152;-72
2022/09/22 06:55:59;;;;;;;1.67;0.70;;;;;;;18.79;44.55;101392.56;4860602;29;20037;-72
2022/09/22 06:58:27;;;;;;;2.63;0.70;;;;;;;18.83;44.64;101389.13;4860996;29;20145;-72
2022/09/22 07:01:05;;;;;;;3.78;0.90;;;;;;;18.78;45.23;101392.88;4847956;29;20042;-72
2022/09/22 07:03:40;;;;;;;0.75;0.75;;;;;;;18.67;43.78;101384.78;4861003;29;20050;-73
2022/09/22 07:06:09;;;;;;;0.90;0.75;;;;;;;18.63;44.97;101385.75;4860809;29;20408;-71
2022/09/22 07:08:38;;;;;;;1.98;0.68;;;;;;;18.75;43.71;101397.09;4860721;29;20050;-70
2022/09/22 07:11:07;;;;;;;1.15;0.80;;;;;;;18.46;43.52;101390.03;4860550;29;20056;-71
2022/09/22 07:13:38;;;;;;;1.15;0.70;;;;;;;19.10;43.20;101399.25;4853015;29;20061;-71
2022/09/22 07:16:09;;;;;;;0.80;0.45;;;;;;;19.43;42.17;101398.09;4858321;29;20500;-71
2022/09/22 07:18:43;;;;;;;0.75;0.75;;;;;;;19.62;41.69;101395.06;4859443;29;20049;-71
2022/09/22 07:21:15;;;;;;;0.57;0.57;;;;;;;19.69;42.65;101389.88;4860570;29;20049;-71
2022/09/22 07:23:43;;;;;;;0.70;0.70;;;;;;;19.53;41.02;101391.44;4860637;29;20401;-71
2022/09/22 07:26:13;;;;;;;3.10;0.70;;;;;;;19.84;41.80;101391.38;4860372;29;20405;-71
2022/09/22 07:28:41;;;;;;;0.65;0.60;;;;;;;19.81;40.44;101396.75;4860254;29;20064;-71
2022/09/22 07:31:14;;;;;;;1.45;0.50;;;;;;;19.69;40.38;101394.59;4859733;29;20061;-71
2022/09/22 07:33:43;;;;;;;0.45;0.45;;;;;;;19.74;41.63;101403.59;4860380;29;20060;-71
2022/09/22 07:36:22;;;;;;;3.17;0.82;;;;;;;19.68;40.95;101406.84;4860191;29;20049;-71
2022/09/22 07:38:52;;;;;;;0.77;0.60;;;;;;;19.29;41.14;101401.81;4860301;29;20049;-71
2022/09/22 07:41:28;;;;;;;0.70;0.70;;;;;;;19.33;40.76;101394.50;4860158;29;20060;-71
2022/09/22 07:45:11;;;;;;;1.00;0.50;;;;;;;19.29;41.26;101404.59;4854455;29;20052;-71
2022/09/22 07:46:46;;;;;;;0.75;0.60;;;;;;;19.54;40.88;101399.47;4859761;29;20402;-71
2022/09/22 07:49:16;;;;;;;0.70;0.60;;;;;;;19.74;41.63;101400.00;4859907;29;20107;-71
2022/09/22 07:51:44;;;;;;;2.05;0.50;;;;;;;19.55;39.94;101406.63;4858669;29;20425;-71
2022/09/22 07:54:12;;;;;;;0.60;0.60;;;;;;;19.67;40.21;101407.97;4860052;29;20052;-71
2022/09/22 07:56:43;;;;;;;0.30;0.30;;;;;;;19.68;40.26;101404.88;4859732;29;20042;-71
2022/09/22 07:59:15;;;;;;;0.93;0.50;;;;;;;20.17;40.44;101414.31;4855998;29;20486;-71
2022/09/22 08:01:46;;;;;;;0.50;0.50;;;;;;;19.94;40.29;101415.22;4851629;29;20069;-71
2022/09/22 08:04:17;;;;;;;1.20;0.47;;;;;;;19.66;39.69;101412.75;4859735;29;20052;-71
2022/09/22 08:06:47;;;;;;;0.40;0.40;;;;;;;19.91;41.32;101417.84;4859883;29;20060;-71
2022/09/22 08:09:17;;;;;;;1.23;0.65;;;;;;;19.81;40.11;101418.97;4859815;29;20092;-71
2022/09/22 08:11:47;;;;;;;1.08;0.50;;;;;;;20.38;39.58;101415.31;4858304;29;20050;-71
2022/09/22 08:14:17;;;;;;;0.47;0.47;;;;;;;20.81;39.71;101416.44;4859025;29;20052;-71
2022/09/22 08:16:44;;;;;;;0.70;0.70;;;;;;;20.58;38.11;101423.31;4866461;29;20524;-70
2022/09/22 08:19:13;;;;;;;0.77;0.65;;;;;;;20.87;37.30;101419.88;4864451;29;20053;-71
2022/09/22 08:21:46;;;;;;;0.85;0.60;;;;;;;20.53;38.16;101416.78;4846437;29;20061;-71
2022/09/22 08:24:21;;;;;;;3.10;0.82;;;;;;;20.50;39.29;101424.97;4859573;29;20080;-71
2022/09/22 08:26:54;;;;;;;0.57;0.50;;;;;;;20.54;38.41;101417.59;4859580;29;20061;-71
2022/09/22 08:29:23;;;;;;;0.40;0.40;;;;;;;20.84;38.42;101409.38;4859252;29;20053;-71
2022/09/22 08:31:52;;;;;;;2.83;0.80;;;;;;;20.96;36.75;101417.06;4859426;29;20064;-70
2022/09/22 08:34:21;;;;;;;1.45;0.73;;;;;;;20.47;37.72;101418.09;4859852;29;20061;-70
2022/09/22 08:36:49;;;;;;;2.65;0.80;;;;;;;21.07;36.91;101418.34;4859310;29;20053;-71
2022/09/22 08:39:18;;;;;;;1.38;0.50;;;;;;;20.81;38.35;101398.91;4859361;29;20072;-71
2022/09/22 08:42:00;;;;;;;0.60;0.40;;;;;;;20.52;37.89;101419.88;4860407;29;20057;-71
2022/09/22 08:44:36;;;;;;;0.65;0.50;;;;;;;20.39;38.61;101410.59;4862554;29;20053;-71
2022/09/22 08:47:04;;;;;;;0.70;0.40;;;;;;;21.12;37.22;101411.00;4863080;29;20577;-71
2022/09/22 08:52:37;;;;;;;2.75;0.60;;;;;;;21.55;36.68;101414.75;4862908;29;20389;-71
2022/09/22 08:55:18;;;;;;;1.48;0.55;;;;;;;21.73;36.55;101412.72;4862921;29;20061;-71
2022/09/22 08:57:59;;;;;;;3.22;0.60;;;;;;;22.11;35.53;101413.78;4861625;29;20057;-71
2022/09/22 09:00:35;;;;;;;1.00;0.50;;;;;;;22.33;35.63;101414.59;4849616;29;20045;-71
2022/09/22 09:03:15;;;;;;;1.00;0.47;;;;;;;22.11;36.22;101411.81;4861397;29;20053;-71
2022/09/22 09:06:02;;;;;;;0.50;0.50;;;;;;;21.89;36.09;101407.38;4862563;29;20544;-71
2022/09/22 09:08:36;;;;;;;0.60;0.60;;;;;;;21.93;35.29;101407.50;4862609;29;20057;-71
2022/09/22 09:11:46;;;;;;;1.75;0.88;;;;;;;21.78;35.40;101408.91;4862434;29;20045;-71
2022/09/22 09:14:46;;;;;;;1.30;0.70;;;;;;;22.01;35.27;101409.44;4861637;29;20061;-71
2022/09/22 09:17:26;;;;;;;0.55;0.55;;;;;;;22.14;34.92;101418.69;4855716;29;20041;-71
2022/09/22 09:19:58;;;;;;;0.47;0.45;;;;;;;22.21;33.89;101404.19;4861121;29;20050;-71
2022/09/22 09:22:32;;;;;;;0.98;0.40;;;;;;;22.11;34.12;101408.22;4869299;29;20052;-71
2022/09/22 09:25:02;;;;;;;;;;;;;;;21.91;35.21;101415.38;4850599;29;20052;-71
2022/09/22 09:28:04;;;;;;;0.40;0.40;;;;;;;22.36;33.40;101411.13;4861989;29;19924;-71
2022/09/22 09:31:06;;;;;;;2.00;0.68;;;;;;;22.09;35.25;101405.75;4860722;29;20049;-71
2022/09/22 09:33:40;;;;;;;1.38;0.30;;;;;;;21.97;35.31;101400.94;4861926;29;20057;-71
2022/09/22 09:36:15;;;;;;;0.50;0.50;;;;;;;22.23;35.80;101401.88;4861988;29;20053;-71
2022/09/22 09:38:54;;;;;;;2.83;0.50;;;;;;;23.09;34.69;101408.97;4861871;29;20049;-71
2022/09/22 09:41:30;;;;;;;0.40;0.40;;;;;;;23.30;34.20;101400.50;4861801;29;20397;-71
2022/09/22 09:44:00;;;;;;;0.80;0.70;;;;;;;23.47;34.84;101404.28;4861380;29;20397;-71
2022/09/22 09:46:51;;;;;;;1.92;0.50;;;;;;;23.52;33.39;101412.41;4855320;29;20049;-71
2022/09/22 09:49:21;;;;;;;1.17;0.82;;;;;;;23.14;33.80;101405.97;4860469;29;20045;-71
2022/09/22 09:51:57;;;;;;;2.78;0.85;;;;;;;23.04;35.17;101401.63;4861408;29;20045;-71
2022/09/22 09:54:26;;;;;;;0.63;0.63;;;;;;;23.87;33.91;101402.72;4859387;29;20060;-71
2022/09/22 09:57:11;;;;;;;3.22;1.02;;;;;;;24.11;32.66;101404.69;4859158;29;20044;-71
2022/09/22 10:02:48;;;;;;;0.75;0.70;;;;;;;23.59;33.66;101392.25;4859676;29;20050;-72
2022/09/22 10:05:16;;;;;;;0.82;0.82;;;;;;;23.77;32.09;101387.25;4861246;29;20061;-71
2022/09/22 10:07:52;;;;;;;2.05;0.70;;;;;;;23.73;33.69;101378.75;4861231;29;20053;-71
2022/09/22 10:10:34;;;;;;;3.35;1.27;;;;;;;23.98;32.11;101386.28;4860074;29;20068;-71
2022/09/22 10:13:04;;;;;;;0.82;0.73;;;;;;;24.26;31.82;101377.97;4861463;29;20355;-71
2022/09/22 10:15:39;;;;;;;28.90;3.15;;;;;;;23.87;31.35;101384.00;4861257;29;20049;-72
2022/09/22 10:18:39;;;;;;;0.70;0.70;;;;;;;23.59;31.31;101381.91;4861203;29;20049;-71
2022/09/22 10:21:21;;;;;;;1.20;1.10;;;;;;;24.13;31.57;101370.78;4844643;29;20060;-71
2022/09/22 10:23:58;;;;;;;2.33;1.05;;;;;;;24.32;31.33;101375.72;4853004;29;20049;-71
2022/09/22 10:26:31;;;;;;;0.77;0.77;;;;;;;25.05;30.65;101372.09;4861067;29;20485;-71
2022/09/22 10:29:11;;;;;;;0.70;0.70;;;;;;;25.32;29.74;101375.16;4860900;29;20708;-72
2022/09/22 10:31:41;;;;;;;1.10;1.00;;;;;;;24.59;30.29;101372.47;4856325;29;20050;-72
2022/09/22 10:34:36;;;;;;;4.07;1.10;;;;;;;24.09;31.38;101367.88;4861079;29;20050;-71
2022/09/22 10:37:10;;;;;;;1.42;1.20;;;;;;;23.59;31.55;101361.53;4861065;29;20041;-71
2022/09/22 10:39:41;;;;;;;;;;;;;;;23.03;32.41;101363.69;4861384;29;20701;-71
2022/09/22 10:42:22;;;;;;;1.75;1.30;;;;;;;22.65;33.35;101364.78;4859846;29;20010;-71
2022/09/22 10:44:51;;;;;;;1.90;1.13;;;;;;;22.25;34.19;101355.78;4859255;29;20042;-72
2022/09/22 10:47:26;;;;;;;1.08;0.98;;;;;;;22.62;32.73;101349.56;4860934;29;20475;-71
2022/09/22 10:50:04;;;;;;;1.30;0.95;;;;;;;23.18;32.20;101358.63;4860718;29;20057;-71
2022/09/22 10:52:42;;;;;;;1.08;0.70;;;;;;;23.15;29.99;101354.53;4859334;29;20049;-71
2022/09/22 10:55:29;;;;;;;0.82;0.80;;;;;;;24.42;29.79;101354.81;4860734;29;20046;-71
2022/09/22 10:58:05;;;;;;;0.60;0.60;;;;;;;25.06;30.03;101356.91;4860831;29;20080;-71
2022/09/22 11:00:39;;;;;;;1.35;0.50;;;;;;;24.89;28.99;101350.53;4847540;29;20049;-71
2022/09/22 11:03:26;;;;;;;0.93;0.73;;;;;;;24.94;29.49;101341.81;4860702;29;20042;-72
2022/09/22 11:12:16;;;;;;;1.33;0.77;;;;;;;24.81;30.96;101343.09;4850354;29;20064;-85
2022/09/22 11:15:02;;;;;;;1.25;0.98;;;;;;;24.41;31.51;101340.03;4860529;29;20049;-85
2022/09/22 11:17:52;;;;;;;3.17;1.02;;;;;;;24.37;31.35;101339.13;4858942;29;20053;-85
2022/09/22 11:20:38;;;;;;;1.33;0.98;;;;;;;24.02;32.83;101340.50;4847216;29;20481;-83
2022/09/22 11:23:16;;;;;;;0.73;0.70;;;;;;;23.42;32.32;101326.31;4859856;29;20041;-84
2022/09/22 11:26:03;;;;;;;8.18;0.85;;;;;;;23.03;33.85;101327.41;4860543;29;20053;-84
2022/09/22 11:28:49;;;;;;;1.58;1.00;;;;;;;22.95;34.00;101319.97;4849202;29;20405;-84
2022/09/22 11:31:45;;;;;;;1.00;0.88;;;;;;;22.84;33.12;101316.00;4851700;29;20057;-84
2022/09/22 11:34:13;;;;;;;0.85;0.85;;;;;;;22.88;33.88;101322.53;4853519;29;20049;-84
2022/09/22 11:36:50;;;;;;;1.70;0.80;;;;;;;22.98;32.92;101312.88;4859043;29;20580;-84
2022/09/22 11:39:20;;;;;;;0.82;0.68;;;;;;;23.20;32.93;101312.44;4860315;29;20497;-84
2022/09/22 11:42:00;;;;;;;0.93;0.70;;;;;;;23.22;32.93;101300.94;4858547;29;20049;-83
2022/09/22 11:44:39;;;;;;;0.80;0.80;;;;;;;23.18;31.67;101313.94;4857058;29;20517;-84
2022/09/22 11:47:19;;;;;;;1.90;0.90;;;;;;;23.42;31.75;101301.97;4857106;29;20049;-84
2022/09/22 11:50:26;;;;;;;0.80;0.70;;;;;;;23.95;31.70;101301.16;4858166;29;20529;-84
2022/09/22 11:53:10;;;;;;;0.90;0.77;;;;;;;24.12;31.54;101302.03;4844659;29;20078;-84
2022/09/22 11:56:01;;;;;;;0.82;0.82;;;;;;;23.70;31.39;101300.44;4857790;29;20045;-84
2022/09/22 11:58:32;;;;;;;1.35;1.02;;;;;;;23.31;31.81;101292.47;4857378;29;20052;-84
2022/09/22 12:01:08;;;;;;;1.70;1.00;;;;;;;23.22;32.39;101279.38;4850453;29;20395;-84
2022/09/22 12:03:57;;;;;;;0.80;0.80;;;;;;;23.23;32.39;101294.16;4853460;29;20042;-84
2022/09/22 12:06:30;;;;;;;1.02;0.88;;;;;;;23.03;32.29;101281.97;4849566;29;20482;-84
2022/09/22 12:09:07;;;;;;;1.63;1.02;;;;;;;22.99;32.88;101287.44;4857749;29;20056;-86